Time;durP1;ratioP1;P1;durP2;ratioP2;P2;SDS_P1;SDS_P2;PMS_P1;PMS_P2;Temp;Humidity;BMP_temperature;BMP_pressure;BME280_temperature;BME280_humidity;BME280_pressure;Samples;Min_cycle;Max_cycle;Signal;HPM_P1;HPM_P2
2022/08/25 00:00:21;;;;;;;3.10;1.60;;;;;;;21.17;89.57;99698.56;4956035;28;20035;-73
2022/08/25 00:02:50;;;;;;;1.95;1.48;;;;;;;21.17;89.67;99703.75;4952626;28;20043;-74
2022/08/25 00:05:30;;;;;;;14.63;2.10;;;;;;;21.15;89.78;99702.97;4951664;28;20043;-74
2022/08/25 00:08:02;;;;;;;2.10;1.85;;;;;;;21.13;89.58;99702.19;4953989;28;20047;-74
2022/08/25 00:10:31;;;;;;;1.50;1.40;;;;;;;21.10;89.48;99697.13;4953336;28;20035;-73
2022/08/25 00:13:00;;;;;;;2.67;1.52;;;;;;;21.10;89.70;99697.13;4952318;28;20106;-73
2022/08/25 00:15:31;;;;;;;4.32;1.08;;;;;;;21.10;89.53;99699.72;4949022;28;20059;-73
2022/08/25 00:18:00;;;;;;;2.35;2.15;;;;;;;21.07;89.41;99693.81;4949563;28;20086;-73
2022/08/25 00:20:31;;;;;;;1.65;1.48;;;;;;;21.04;89.62;99692.16;4951169;28;20047;-73
2022/08/25 00:23:00;;;;;;;1.98;1.77;;;;;;;21.03;89.34;99694.81;4951354;28;20134;-73
2022/08/25 00:25:29;;;;;;;2.10;1.90;;;;;;;21.01;89.13;99697.50;4949070;28;20051;-73
2022/08/25 00:27:57;;;;;;;1.67;1.58;;;;;;;20.94;89.23;99695.22;4967910;28;20043;-72
2022/08/25 00:30:26;;;;;;;2.63;1.65;;;;;;;20.97;89.30;99701.13;4951336;28;20086;-74
2022/08/25 00:32:55;;;;;;;1.48;1.25;;;;;;;20.99;89.24;99698.47;4949878;28;20047;-73
2022/08/25 00:35:26;;;;;;;1.35;1.25;;;;;;;21.00;89.36;99698.41;4948201;28;20039;-73
2022/08/25 00:37:56;;;;;;;1.90;1.60;;;;;;;20.99;89.07;99688.94;4953260;28;20039;-73
2022/08/25 00:40:27;;;;;;;2.75;1.95;;;;;;;20.96;89.29;99693.41;4951865;28;20051;-74
2022/08/25 00:42:57;;;;;;;1.55;1.23;;;;;;;20.88;88.96;99688.53;4950881;28;20133;-73
2022/08/25 00:45:25;;;;;;;1.30;1.15;;;;;;;20.82;89.14;99686.22;4951302;28;20106;-74
2022/08/25 00:47:54;;;;;;;2.33;1.08;;;;;;;20.80;89.18;99693.22;4953592;28;20047;-73
2022/08/25 00:50:29;;;;;;;1.20;1.10;;;;;;;20.71;89.30;99683.22;4952993;28;20054;-73
2022/08/25 00:53:05;;;;;;;1.02;0.93;;;;;;;20.68;89.36;99693.75;4947986;28;20508;-73
2022/08/25 00:55:39;;;;;;;1.42;1.23;;;;;;;20.63;89.25;99690.50;4950826;28;20126;-73
2022/08/25 00:58:13;;;;;;;5.57;2.33;;;;;;;20.55;89.63;99687.34;4951627;28;20119;-74
2022/08/25 01:00:46;;;;;;;1.13;1.02;;;;;;;20.49;89.49;99691.03;4951873;28;20044;-73
2022/08/25 01:03:17;;;;;;;2.25;1.83;;;;;;;20.52;89.82;99692.66;4952473;28;20040;-73
2022/08/25 01:05:46;;;;;;;1.00;0.90;;;;;;;20.50;89.79;99684.97;4948291;28;20047;-74
2022/08/25 01:08:20;;;;;;;0.82;0.80;;;;;;;20.42;89.80;99683.59;4950374;28;20047;-74
2022/08/25 01:10:50;;;;;;;2.00;1.58;;;;;;;20.37;89.67;99682.94;4951754;28;20098;-73
2022/08/25 01:13:24;;;;;;;1.75;1.25;;;;;;;20.33;89.43;99691.72;4951069;28;20043;-74
2022/08/25 01:15:56;;;;;;;1.40;1.30;;;;;;;20.29;89.95;99690.16;4952302;28;20079;-74
2022/08/25 01:18:26;;;;;;;3.38;1.23;;;;;;;20.35;89.76;99695.09;4950893;28;20421;-74
2022/08/25 01:20:58;;;;;;;5.38;1.88;;;;;;;20.44;89.85;99694.75;4950668;28;20070;-74
2022/08/25 01:23:27;;;;;;;1.88;1.77;;;;;;;20.48;89.73;99685.91;4948186;28;20047;-74
2022/08/25 01:26:01;;;;;;;1.75;1.65;;;;;;;20.54;89.77;99680.47;4949224;28;20109;-74
2022/08/25 01:28:31;;;;;;;1.27;1.17;;;;;;;20.47;89.49;99685.06;4949226;28;20051;-74
2022/08/25 01:31:00;;;;;;;0.80;0.77;;;;;;;20.43;89.51;99682.66;4950905;28;20489;-74
2022/08/25 01:33:29;;;;;;;1.08;0.90;;;;;;;20.46;89.59;99682.56;4953308;28;20039;-74
2022/08/25 01:35:59;;;;;;;6.95;1.20;;;;;;;20.48;89.80;99676.41;4950237;28;20544;-74
2022/08/25 01:38:28;;;;;;;1.40;1.13;;;;;;;20.50;89.84;99679.78;4949155;28;20425;-74
2022/08/25 01:40:56;;;;;;;1.80;1.50;;;;;;;20.48;89.67;99675.56;4945297;28;20088;-74
2022/08/25 01:43:35;;;;;;;2.00;1.77;;;;;;;20.49;89.74;99682.44;4949099;28;20186;-73
2022/08/25 01:46:04;;;;;;;2.38;1.35;;;;;;;20.50;89.58;99668.53;4953157;28;20062;-74
2022/08/25 01:48:34;;;;;;;1.38;1.27;;;;;;;20.50;89.82;99678.91;4955754;28;20044;-74
2022/08/25 01:51:04;;;;;;;1.20;1.00;;;;;;;20.52;89.95;99682.28;4952963;28;20075;-74
2022/08/25 01:53:33;;;;;;;2.53;1.48;;;;;;;20.48;89.62;99676.41;4955336;28;20135;-74
2022/08/25 01:56:10;;;;;;;3.37;2.43;;;;;;;20.49;89.83;99677.25;4953109;28;20047;-74
2022/08/25 01:58:42;;;;;;;2.25;1.63;;;;;;;20.47;90.17;99669.50;4952418;28;20051;-74
2022/08/25 02:01:14;;;;;;;3.53;2.28;;;;;;;20.46;89.65;99672.19;4952715;28;20535;-74
2022/08/25 02:03:48;;;;;;;0.80;0.80;;;;;;;20.45;89.77;99680.84;4949808;28;20509;-74
2022/08/25 02:06:21;;;;;;;2.83;1.67;;;;;;;20.47;89.97;99679.03;4953629;28;20051;-75
2022/08/25 02:08:59;;;;;;;3.20;1.67;;;;;;;20.44;89.70;99679.19;4952767;28;20039;-74
2022/08/25 02:11:29;;;;;;;1.85;1.60;;;;;;;20.43;89.80;99682.66;4951987;28;20130;-75
2022/08/25 02:13:59;;;;;;;3.00;2.42;;;;;;;20.44;90.04;99684.38;4953274;28;20055;-73
2022/08/25 02:16:32;;;;;;;1.27;0.90;;;;;;;20.44;90.19;99684.38;4952507;28;20310;-74
2022/08/25 02:19:02;;;;;;;5.45;1.65;;;;;;;20.45;90.23;99680.84;4951771;28;20040;-73
2022/08/25 02:21:32;;;;;;;1.60;1.48;;;;;;;20.43;90.03;99672.31;4953515;28;20133;-74
2022/08/25 02:24:03;;;;;;;1.58;1.20;;;;;;;20.38;90.18;99669.03;4957448;28;20063;-73
2022/08/25 02:26:33;;;;;;;1.25;1.15;;;;;;;20.41;90.17;99674.13;4954207;28;20106;-74
2022/08/25 02:29:01;;;;;;;2.97;1.65;;;;;;;20.41;90.02;99666.34;4954644;28;20077;-73
2022/08/25 02:31:30;;;;;;;6.83;2.17;;;;;;;20.38;89.88;99669.91;4952600;28;20043;-74
2022/08/25 02:34:00;;;;;;;2.57;2.20;;;;;;;20.38;89.82;99669.91;4951841;28;20126;-73
2022/08/25 02:36:32;;;;;;;1.73;1.30;;;;;;;20.40;89.66;99664.63;4952401;28;20412;-74
2022/08/25 02:39:01;;;;;;;4.38;2.35;;;;;;;20.38;89.94;99675.09;4955200;28;20054;-73
2022/08/25 02:41:32;;;;;;;1.17;1.08;;;;;;;20.37;89.93;99667.38;4951700;28;20047;-73
2022/08/25 02:44:04;;;;;;;4.10;1.92;;;;;;;20.36;89.88;99661.34;4957314;28;20046;-73
2022/08/25 02:46:33;;;;;;;2.10;1.55;;;;;;;20.37;89.99;99664.78;4952878;28;20036;-73
2022/08/25 02:49:01;;;;;;;9.00;1.40;;;;;;;20.36;89.79;99655.31;4955792;28;20094;-73
2022/08/25 02:51:32;;;;;;;1.35;1.23;;;;;;;20.35;90.29;99663.97;4952570;28;20684;-74
2022/08/25 02:54:04;;;;;;;1.33;1.20;;;;;;;20.32;90.14;99664.13;4955281;28;20062;-73
2022/08/25 02:56:33;;;;;;;3.45;1.52;;;;;;;20.28;89.92;99654.75;4951432;28;20135;-73
2022/08/25 02:59:03;;;;;;;4.72;2.83;;;;;;;20.25;90.07;99657.50;4950388;28;20039;-74
2022/08/25 03:01:32;;;;;;;1.73;1.63;;;;;;;20.28;89.98;99657.34;4950086;28;20063;-74
2022/08/25 03:04:02;;;;;;;1.10;0.90;;;;;;;20.29;90.13;99659.06;4952332;28;20054;-73
2022/08/25 03:06:32;;;;;;;;;;;;;;;20.30;89.91;99660.75;4948053;28;20079;-74
2022/08/25 03:09:00;;;;;;;3.00;2.08;;;;;;;20.31;90.08;99652.06;4951407;28;19926;-72
2022/08/25 03:11:30;;;;;;;1.60;1.30;;;;;;;20.33;89.99;99655.44;4951750;28;20055;-74
2022/08/25 03:13:59;;;;;;;1.73;1.50;;;;;;;20.32;90.13;99653.75;4952058;28;20040;-74
2022/08/25 03:16:28;;;;;;;3.28;1.88;;;;;;;20.30;89.98;99651.22;4953456;28;20083;-74
2022/08/25 03:18:58;;;;;;;2.13;1.92;;;;;;;20.31;90.05;99652.06;4953368;28;20035;-74
2022/08/25 03:21:29;;;;;;;1.67;1.10;;;;;;;20.30;90.21;99650.38;4952770;28;20057;-73
2022/08/25 03:24:00;;;;;;;0.88;0.88;;;;;;;20.30;90.28;99645.22;4954020;28;20060;-74
2022/08/25 03:29:09;;;;;;;1.33;1.23;;;;;;;20.33;90.32;99639.88;4953480;28;20047;-75
2022/08/25 03:31:39;;;;;;;2.35;2.17;;;;;;;20.32;90.26;99644.25;4950699;28;20047;-74
2022/08/25 03:34:08;;;;;;;1.42;1.15;;;;;;;20.34;90.15;99651.94;4950447;28;20043;-75
2022/08/25 03:36:37;;;;;;;3.60;2.30;;;;;;;20.35;90.14;99653.59;4952467;28;20039;-74
2022/08/25 03:39:07;;;;;;;6.57;2.03;;;;;;;20.33;90.14;99655.44;4952102;28;20062;-72
2022/08/25 03:41:36;;;;;;;1.30;1.20;;;;;;;20.32;90.37;99656.34;4953354;28;20083;-72
2022/08/25 03:44:08;;;;;;;3.38;3.03;;;;;;;20.28;90.47;99657.34;4954339;28;20039;-73
2022/08/25 03:46:40;;;;;;;33.72;4.53;;;;;;;20.29;90.88;99654.72;4952468;28;20039;-72
2022/08/25 03:49:12;;;;;;;1.80;1.67;;;;;;;20.27;90.93;99653.94;4949379;28;20049;-74
2022/08/25 03:51:44;;;;;;;4.57;2.72;;;;;;;20.31;90.93;99657.25;4950852;28;20070;-73
2022/08/25 03:54:15;;;;;;;2.58;2.30;;;;;;;20.32;91.08;99656.34;4953159;28;20074;-73
2022/08/25 03:56:44;;;;;;;2.97;1.70;;;;;;;20.33;91.28;99656.28;4951261;28;20142;-73
2022/08/25 03:59:13;;;;;;;4.53;1.48;;;;;;;20.36;91.31;99652.72;4952183;28;20051;-73
2022/08/25 04:01:44;;;;;;;1.35;1.23;;;;;;;20.38;91.37;99654.34;4948793;28;20039;-73
2022/08/25 04:04:15;;;;;;;0.88;0.85;;;;;;;20.37;91.32;99657.81;4951390;28;20055;-73
2022/08/25 04:06:45;;;;;;;2.15;1.88;;;;;;;20.39;91.56;99650.00;4948947;28;20122;-73
2022/08/25 04:09:16;;;;;;;2.55;2.08;;;;;;;20.40;91.54;99651.69;4950128;28;20481;-73
2022/08/25 04:11:45;;;;;;;1.92;1.45;;;;;;;20.42;91.63;99650.72;4946247;28;20035;-73
2022/08/25 04:14:16;;;;;;;2.00;1.75;;;;;;;20.42;91.68;99649.88;4951337;28;20513;-73
2022/08/25 04:16:45;;;;;;;1.60;1.50;;;;;;;20.44;91.63;99648.88;4943667;28;20484;-73
2022/08/25 04:19:14;;;;;;;;;;;;;;;20.45;91.66;99650.59;4950609;28;20031;-73
2022/08/25 04:21:43;;;;;;;3.38;2.55;;;;;;;20.47;91.64;99655.69;4951588;28;19970;-73
2022/08/25 04:24:13;;;;;;;1.00;0.93;;;;;;;20.51;91.64;99657.28;4952535;28;20065;-73
2022/08/25 04:26:45;;;;;;;3.75;1.90;;;;;;;20.51;91.25;99649.50;4954614;28;20035;-73
2022/08/25 04:29:17;;;;;;;2.45;1.88;;;;;;;20.48;91.56;99645.28;4955546;29;20081;-73
2022/08/25 04:31:49;;;;;;;3.70;2.65;;;;;;;20.48;91.65;99649.63;4947258;28;20098;-73
2022/08/25 04:34:19;;;;;;;2.40;1.60;;;;;;;20.49;91.34;99653.91;4950504;28;20564;-73
2022/08/25 04:37:01;;;;;;;2.25;1.60;;;;;;;20.51;91.35;99639.97;4953081;28;20043;-73
2022/08/25 04:39:30;;;;;;;1.35;1.25;;;;;;;20.52;91.25;99644.25;4950731;28;20093;-73
2022/08/25 04:42:01;;;;;;;3.17;2.33;;;;;;;20.51;91.35;99633.94;4945634;28;20085;-73
2022/08/25 04:44:30;;;;;;;1.27;1.13;;;;;;;20.58;91.45;99640.56;4954050;28;20497;-73
2022/08/25 04:47:00;;;;;;;2.22;1.77;;;;;;;20.63;91.50;99639.47;4952985;28;20070;-73
2022/08/25 04:49:29;;;;;;;3.47;2.42;;;;;;;20.65;91.30;99634.19;4953833;28;20074;-73
2022/08/25 04:51:58;;;;;;;1.50;1.33;;;;;;;20.66;91.22;99631.53;4953229;28;20051;-73
2022/08/25 04:54:27;;;;;;;2.03;1.83;;;;;;;20.65;91.00;99634.19;4955505;28;20445;-73
2022/08/25 04:56:55;;;;;;;1.45;1.35;;;;;;;20.65;91.18;99635.06;4954283;28;20130;-73
2022/08/25 04:59:28;;;;;;;3.00;1.42;;;;;;;20.67;90.94;99642.75;4954263;28;20102;-74
2022/08/25 05:02:01;;;;;;;0.88;0.88;;;;;;;20.68;91.02;99626.28;4950118;28;20494;-73
2022/08/25 05:04:31;;;;;;;1.80;1.55;;;;;;;20.72;91.11;99638.22;4945722;28;20060;-73
2022/08/25 05:07:01;;;;;;;2.22;1.92;;;;;;;20.75;90.95;99648.47;4948160;28;20564;-73
2022/08/25 05:09:31;;;;;;;1.15;1.05;;;;;;;20.74;90.93;99641.59;4950061;28;20066;-72
2022/08/25 05:12:01;;;;;;;1.52;1.42;;;;;;;20.76;91.09;99642.34;4948584;28;20051;-72
2022/08/25 05:14:32;;;;;;;3.03;1.98;;;;;;;20.73;90.94;99639.91;4948018;28;20048;-72
2022/08/25 05:17:02;;;;;;;4.60;2.30;;;;;;;20.75;91.13;99652.81;4950422;28;20051;-72
2022/08/25 05:19:31;;;;;;;3.03;2.38;;;;;;;20.74;90.96;99641.59;4953452;28;20497;-71
2022/08/25 05:22:00;;;;;;;0.90;0.90;;;;;;;20.76;90.88;99644.94;4955894;28;20078;-72
2022/08/25 05:24:29;;;;;;;2.15;1.95;;;;;;;20.78;91.15;99637.94;4951525;28;20093;-73
2022/08/25 05:26:58;;;;;;;;;;;;;;;20.83;91.09;99640.38;4956046;28;20043;-73
2022/08/25 05:29:26;;;;;;;1.40;1.33;;;;;;;20.85;91.12;99636.75;4958624;29;20336;-73
2022/08/25 05:31:57;;;;;;;1.97;1.30;;;;;;;20.91;91.16;99646.91;4954516;28;20043;-73
2022/08/25 05:34:25;;;;;;;3.22;1.55;;;;;;;20.93;91.18;99642.47;4957602;28;20047;-74
2022/08/25 05:36:56;;;;;;;1.63;1.40;;;;;;;20.95;91.20;99640.66;4955423;28;20090;-73
2022/08/25 05:39:25;;;;;;;2.10;1.40;;;;;;;20.96;90.93;99631.13;4954214;28;20047;-73
2022/08/25 05:41:54;;;;;;;4.82;1.35;;;;;;;21.00;90.86;99627.47;4955131;28;20500;-72
2022/08/25 05:44:23;;;;;;;2.40;2.00;;;;;;;21.05;90.75;99626.41;4956045;28;20126;-73
2022/08/25 05:46:51;;;;;;;1.07;0.97;;;;;;;21.11;90.90;99631.34;4953064;28;20040;-74
2022/08/25 05:49:21;;;;;;;2.53;1.92;;;;;;;21.14;90.68;99631.19;4956414;28;20501;-71
2022/08/25 05:51:50;;;;;;;3.28;1.40;;;;;;;21.21;90.68;99636.97;4953235;28;20051;-72
2022/08/25 05:54:19;;;;;;;2.22;1.58;;;;;;;21.26;90.34;99635.81;4951898;28;20035;-72
2022/08/25 05:56:48;;;;;;;1.40;1.08;;;;;;;21.34;90.33;99636.34;4953948;28;20506;-74
2022/08/25 05:59:17;;;;;;;2.93;1.73;;;;;;;21.47;90.04;99639.22;4954085;28;20051;-73
2022/08/25 06:04:26;;;;;;;2.20;1.63;;;;;;;21.84;89.23;99634.03;4952367;28;20087;-73
2022/08/25 06:06:54;;;;;;;2.03;1.88;;;;;;;21.99;88.80;99637.66;4953815;28;20513;-72
2022/08/25 06:09:23;;;;;;;3.70;1.57;;;;;;;22.07;88.05;99630.34;4951216;28;20031;-73
2022/08/25 06:11:53;;;;;;;1.52;1.30;;;;;;;22.18;87.57;99638.44;4952798;28;20043;-74
2022/08/25 06:14:23;;;;;;;1.13;1.02;;;;;;;22.26;87.05;99641.53;4953199;28;20051;-74
2022/08/25 06:16:52;;;;;;;1.25;1.15;;;;;;;22.31;86.59;99636.94;4955973;28;20445;-74
2022/08/25 06:19:22;;;;;;;3.67;2.38;;;;;;;22.43;86.43;99641.53;4954622;28;20489;-74
2022/08/25 06:21:55;;;;;;;;;;;;;;;22.58;86.06;99643.34;4951405;28;20126;-75
2022/08/25 06:24:25;;;;;;;3.30;1.88;;;;;;;22.65;85.86;99644.75;4949358;28;19962;-74
2022/08/25 06:26:55;;;;;;;2.40;2.03;;;;;;;22.73;85.19;99635.72;4956677;28;20059;-73
2022/08/25 06:29:23;;;;;;;0.90;0.85;;;;;;;22.82;84.66;99643.09;4952452;28;20089;-73
2022/08/25 06:31:52;;;;;;;2.05;1.58;;;;;;;22.95;84.69;99651.94;4950792;28;20046;-73
2022/08/25 06:34:21;;;;;;;4.05;3.00;;;;;;;23.08;84.08;99637.38;4953282;28;20058;-72
2022/08/25 06:36:54;;;;;;;4.97;3.08;;;;;;;23.20;83.96;99637.53;4954097;28;20043;-74
2022/08/25 06:39:23;;;;;;;4.75;2.75;;;;;;;23.34;83.28;99640.28;4952728;28;20059;-73
2022/08/25 06:41:52;;;;;;;4.00;2.50;;;;;;;23.41;82.91;99648.63;4955265;28;20035;-72
2022/08/25 06:44:21;;;;;;;2.92;2.40;;;;;;;23.56;82.49;99650.44;4952987;28;20389;-73
2022/08/25 06:46:50;;;;;;;2.00;1.83;;;;;;;23.68;81.98;99654.13;4952161;28;20043;-72
2022/08/25 06:49:19;;;;;;;;;;;;;;;23.69;81.50;99656.63;4954027;28;20051;-73
2022/08/25 06:51:48;;;;;;;1.85;1.33;;;;;;;23.77;81.05;99654.47;4950934;28;19926;-72
2022/08/25 06:54:19;;;;;;;2.03;1.83;;;;;;;23.90;80.87;99660.66;4953057;28;21089;-73
2022/08/25 06:56:48;;;;;;;3.60;2.42;;;;;;;24.00;80.71;99659.22;4951482;28;20058;-73
2022/08/25 06:59:17;;;;;;;12.20;2.80;;;;;;;24.12;80.63;99657.72;4952096;28;20136;-73
2022/08/25 07:01:46;;;;;;;7.85;3.13;;;;;;;24.15;79.27;99648.91;4936852;29;20047;-73
2022/08/25 07:04:17;;;;;;;9.13;3.70;;;;;;;24.17;78.65;99654.84;4936775;29;20051;-73
2022/08/25 07:06:46;;;;;;;2.28;1.67;;;;;;;24.22;78.24;99647.63;4937683;29;20054;-73
2022/08/25 07:09:15;;;;;;;0.82;0.80;;;;;;;24.31;78.07;99644.47;4937598;29;20143;-73
2022/08/25 07:11:46;;;;;;;3.50;1.67;;;;;;;24.46;78.17;99651.44;4937666;29;20035;-73
2022/08/25 07:14:17;;;;;;;3.72;3.17;;;;;;;24.56;77.82;99649.97;4937266;29;20059;-73
2022/08/25 07:16:46;;;;;;;3.58;1.33;;;;;;;24.61;77.15;99647.94;4937778;29;20075;-72
2022/08/25 07:19:20;;;;;;;3.95;1.95;;;;;;;24.67;76.81;99647.56;4937700;29;20067;-73
2022/08/25 07:21:52;;;;;;;3.60;1.17;;;;;;;24.75;76.25;99649.72;4937900;29;20560;-73
2022/08/25 07:24:22;;;;;;;1.33;1.23;;;;;;;24.81;75.78;99649.41;4947629;29;20062;-74
2022/08/25 07:26:53;;;;;;;1.90;1.75;;;;;;;24.88;75.65;99651.56;4937331;29;20055;-74
2022/08/25 07:29:25;;;;;;;1.67;1.35;;;;;;;24.91;75.49;99646.13;4937712;29;20032;-72
2022/08/25 07:32:01;;;;;;;2.33;1.40;;;;;;;25.02;75.84;99638.53;4937127;29;20043;-72
2022/08/25 07:37:11;;;;;;;1.35;1.25;;;;;;;25.18;75.04;99647.09;4950721;29;20438;-74
2022/08/25 07:40:03;;;;;;;9.50;2.30;;;;;;;25.21;73.70;99649.53;4955046;29;20053;-73
2022/08/25 07:42:34;;;;;;;1.98;1.73;;;;;;;25.22;73.75;99645.13;4937791;29;20082;-73
2022/08/25 07:45:06;;;;;;;1.05;0.98;;;;;;;25.34;73.63;99641.75;4936948;29;20138;-73
2022/08/25 07:47:35;;;;;;;5.28;1.80;;;;;;;25.47;73.29;99653.19;4945576;29;20086;-72
2022/08/25 07:50:06;;;;;;;2.90;1.83;;;;;;;25.52;72.96;99655.50;4956028;29;20048;-73
2022/08/25 07:52:34;;;;;;;3.65;2.20;;;;;;;25.55;72.99;99652.72;4956005;28;20398;-73
2022/08/25 07:55:07;;;;;;;5.25;2.63;;;;;;;25.62;72.22;99651.38;4956182;28;20476;-72
2022/08/25 07:57:41;;;;;;;1.77;1.50;;;;;;;25.66;72.58;99643.25;4955760;28;20106;-73
2022/08/25 08:00:13;;;;;;;2.40;2.15;;;;;;;25.80;72.49;99643.22;4955877;29;20043;-72
2022/08/25 08:02:42;;;;;;;2.13;1.92;;;;;;;25.83;71.59;99644.78;4955800;29;20055;-72
2022/08/25 08:05:13;;;;;;;1.67;1.38;;;;;;;25.95;71.63;99644.84;4955697;28;20074;-71
2022/08/25 08:07:42;;;;;;;2.08;1.42;;;;;;;26.01;70.73;99640.97;4955773;29;20568;-71
2022/08/25 08:10:14;;;;;;;1.40;1.20;;;;;;;26.04;70.98;99646.03;4955790;28;20393;-71
2022/08/25 08:13:05;;;;;;;5.88;3.05;;;;;;;26.14;70.81;99644.53;4955821;29;20047;-71
2022/08/25 08:15:35;;;;;;;2.35;2.10;;;;;;;26.21;70.89;99648.44;4955889;28;20051;-71
2022/08/25 08:18:04;;;;;;;1.35;1.25;;;;;;;26.32;71.00;99651.16;4955610;28;20568;-71
2022/08/25 08:20:35;;;;;;;2.15;1.58;;;;;;;26.47;71.50;99652.78;4955551;29;20070;-71
2022/08/25 08:23:11;;;;;;;2.58;1.33;;;;;;;26.58;70.22;99658.16;4956295;28;20520;-73
2022/08/25 08:25:40;;;;;;;2.38;1.95;;;;;;;26.67;69.88;99655.84;4955621;29;20043;-72
2022/08/25 08:28:10;;;;;;;11.70;2.50;;;;;;;26.70;68.73;99661.75;4949144;29;20045;-72
2022/08/25 08:30:41;;;;;;;4.13;1.80;;;;;;;26.75;68.26;99657.06;4954276;29;20556;-71
2022/08/25 08:33:24;;;;;;;1.48;1.38;;;;;;;26.78;67.94;99659.47;4955431;28;20079;-72
2022/08/25 08:36:00;;;;;;;1.70;1.17;;;;;;;26.72;66.89;99653.78;4956049;28;20048;-71
2022/08/25 08:38:33;;;;;;;1.40;1.30;;;;;;;26.82;67.59;99657.47;4944922;29;20135;-72
2022/08/25 08:44:42;;;;;;;2.33;1.77;;;;;;;27.24;68.48;99654.53;4938813;29;20048;-71
2022/08/25 08:47:20;;;;;;;3.10;1.70;;;;;;;27.31;67.85;99660.22;4955681;29;20043;-72
2022/08/25 08:50:00;;;;;;;1.40;1.30;;;;;;;27.36;66.86;99656.28;4953729;28;20066;-73
2022/08/25 08:52:42;;;;;;;1.40;1.23;;;;;;;27.47;67.15;99659.06;4946967;28;20047;-71
2022/08/25 08:55:18;;;;;;;1.88;1.65;;;;;;;27.63;67.25;99653.56;4959866;28;20050;-71
2022/08/25 08:57:50;;;;;;;2.33;1.50;;;;;;;27.66;66.59;99654.19;4959014;29;20059;-71
2022/08/25 09:00:20;;;;;;;1.10;1.00;;;;;;;27.73;66.49;99655.41;4959202;29;20052;-72
2022/08/25 09:02:58;;;;;;;5.30;2.13;;;;;;;27.77;66.43;99656.88;4959059;28;20047;-73
2022/08/25 09:05:32;;;;;;;5.07;1.75;;;;;;;27.78;65.13;99653.31;4959005;29;20162;-72
2022/08/25 09:08:09;;;;;;;2.42;1.98;;;;;;;27.69;64.08;99648.69;4966478;28;20436;-73
2022/08/25 09:10:54;;;;;;;1.48;1.35;;;;;;;27.58;64.33;99660.91;4944929;29;20055;-73
2022/08/25 09:13:32;;;;;;;2.22;1.52;;;;;;;27.73;65.11;99644.94;4943074;29;20095;-73
2022/08/25 09:19:19;;;;;;;3.05;1.85;;;;;;;27.89;62.49;99640.25;4957463;28;20063;-74
2022/08/25 09:21:58;;;;;;;3.85;2.25;;;;;;;28.11;63.35;99636.06;4939837;29;20048;-73
2022/08/25 09:24:44;;;;;;;1.40;1.30;;;;;;;28.23;63.23;99632.56;4948300;29;20570;-73
2022/08/25 09:27:32;;;;;;;3.42;1.70;;;;;;;28.24;62.33;99629.00;4961201;28;20042;-71
2022/08/25 09:30:05;;;;;;;2.88;1.88;;;;;;;28.38;62.06;99626.16;4959226;29;20051;-73
2022/08/25 09:32:43;;;;;;;4.65;2.25;;;;;;;28.40;61.88;99629.50;4956194;29;20047;-72
2022/08/25 09:35:24;;;;;;;1.67;1.52;;;;;;;28.45;61.52;99627.38;4957126;29;20138;-73
2022/08/25 09:37:58;;;;;;;1.10;1.00;;;;;;;28.53;61.41;99619.75;4958755;29;20083;-73
2022/08/25 09:40:28;;;;;;;1.95;1.25;;;;;;;28.51;60.73;99624.28;4953430;28;20534;-73
2022/08/25 09:42:59;;;;;;;1.80;1.30;;;;;;;28.41;61.42;99615.44;4947508;29;20044;-72
2022/08/25 09:45:42;;;;;;;6.30;1.80;;;;;;;28.33;61.56;99612.53;4939473;29;20043;-72
2022/08/25 09:48:24;;;;;;;1.50;1.40;;;;;;;28.45;62.25;99617.72;4954308;29;20070;-73
2022/08/25 09:50:58;;;;;;;1.83;1.55;;;;;;;28.74;62.35;99610.28;4958790;29;20409;-73
2022/08/25 09:53:28;;;;;;;1.13;1.02;;;;;;;28.85;61.49;99605.03;4957239;28;20102;-72
2022/08/25 09:56:05;;;;;;;1.23;1.13;;;;;;;28.85;61.16;99605.03;4976680;28;20054;-73
2022/08/25 09:58:34;;;;;;;1.08;0.98;;;;;;;28.93;60.42;99605.28;4977286;28;20101;-72
2022/08/25 10:01:14;;;;;;;1.38;1.27;;;;;;;28.93;59.19;99607.91;4977586;28;20054;-72
2022/08/25 10:04:06;;;;;;;4.30;2.05;;;;;;;28.97;58.24;99604.09;4977059;28;20054;-73
2022/08/25 10:06:47;;;;;;;0.60;0.60;;;;;;;29.14;58.17;99595.72;4977112;28;20043;-72
2022/08/25 10:09:29;;;;;;;1.77;1.20;;;;;;;29.26;57.72;99593.09;4961231;28;20051;-72
2022/08/25 10:12:03;;;;;;;1.38;1.15;;;;;;;29.12;56.15;99592.38;4958148;28;20066;-71
2022/08/25 10:14:37;;;;;;;2.00;1.80;;;;;;;28.97;55.55;99593.56;4951297;28;20521;-71
2022/08/25 10:17:16;;;;;;;0.80;0.80;;;;;;;29.03;55.72;99590.44;4942556;29;20054;-72
2022/08/25 10:19:46;;;;;;;1.75;1.40;;;;;;;29.15;55.52;99581.59;4938756;29;20054;-72
2022/08/25 10:22:25;;;;;;;1.80;1.65;;;;;;;29.27;55.29;99579.00;4938841;29;20151;-72
2022/08/25 10:24:55;;;;;;;1.20;1.10;;;;;;;29.46;54.89;99581.84;4953454;29;20131;-72
2022/08/25 10:27:34;;;;;;;0.85;0.85;;;;;;;29.47;54.08;99575.63;4938618;29;20114;-72
2022/08/25 10:30:17;;;;;;;1.50;1.20;;;;;;;29.53;54.39;99570.72;4950833;29;20035;-72
2022/08/25 10:33:09;;;;;;;1.10;1.00;;;;;;;29.59;54.58;99569.38;4957672;29;20047;-72
2022/08/25 10:35:52;;;;;;;2.38;1.30;;;;;;;29.50;53.87;99576.22;4957294;28;20061;-71
2022/08/25 10:38:37;;;;;;;1.00;0.90;;;;;;;29.50;53.69;99570.13;4957229;28;20528;-72
2022/08/25 10:41:37;;;;;;;1.00;0.95;;;;;;;29.49;53.91;99564.00;4957274;28;20082;-71
2022/08/25 10:47:11;;;;;;;1.20;1.05;;;;;;;29.84;52.95;99561.19;4956333;29;20135;-71
2022/08/25 10:49:46;;;;;;;1.10;0.98;;;;;;;29.88;52.38;99562.63;4957186;29;20066;-71
2022/08/25 10:52:30;;;;;;;0.73;0.73;;;;;;;30.02;53.28;99564.94;4957515;29;20053;-71
2022/08/25 10:55:07;;;;;;;1.10;1.00;;;;;;;30.24;53.37;99564.00;4957265;29;20066;-71
2022/08/25 10:57:45;;;;;;;0.68;0.68;;;;;;;30.18;51.75;99557.47;4955610;29;20114;-71
2022/08/25 11:00:17;;;;;;;1.33;1.02;;;;;;;30.15;51.31;99557.72;4957298;29;20047;-71
2022/08/25 11:03:02;;;;;;;2.38;1.83;;;;;;;29.93;51.33;99556.97;4956873;29;20498;-71
2022/08/25 11:05:40;;;;;;;0.93;0.80;;;;;;;29.98;51.29;99549.53;4956849;29;20078;-72
2022/08/25 11:08:17;;;;;;;1.27;1.00;;;;;;;30.11;51.54;99545.78;4975684;28;20428;-70
2022/08/25 11:10:51;;;;;;;0.90;0.90;;;;;;;30.09;50.51;99552.94;4976043;28;20065;-70
2022/08/25 11:13:27;;;;;;;0.98;0.90;;;;;;;30.15;50.69;99541.91;4976064;28;20043;-70
2022/08/25 11:16:03;;;;;;;0.68;0.68;;;;;;;30.28;50.22;99541.72;4975870;28;20043;-71
2022/08/25 11:18:56;;;;;;;0.90;0.77;;;;;;;30.20;49.58;99545.00;4976215;28;20467;-72
2022/08/25 11:21:33;;;;;;;1.27;1.17;;;;;;;30.36;50.02;99529.59;4976244;28;20121;-71
2022/08/25 11:24:19;;;;;;;1.63;0.80;;;;;;;30.56;50.24;99529.69;4975794;28;20050;-72
2022/08/25 11:26:55;;;;;;;0.80;0.80;;;;;;;30.69;50.55;99528.50;4975828;28;20052;-71
2022/08/25 11:29:29;;;;;;;2.60;1.42;;;;;;;30.59;50.11;99521.53;4958175;28;20099;-73
2022/08/25 11:32:00;;;;;;;0.73;0.73;;;;;;;30.60;50.29;99525.81;4941668;29;20094;-71
2022/08/25 11:34:33;;;;;;;0.90;0.90;;;;;;;30.68;50.67;99528.66;4937547;29;20055;-73
2022/08/25 11:37:07;;;;;;;1.15;1.05;;;;;;;30.88;50.01;99519.88;4937093;29;20075;-72
2022/08/25 11:40:12;;;;;;;1.27;1.15;;;;;;;30.80;49.04;99527.59;4937185;29;20058;-72
2022/08/25 11:42:59;;;;;;;0.80;0.80;;;;;;;30.97;49.30;99516.44;4937274;29;20067;-71
2022/08/25 11:45:54;;;;;;;0.88;0.82;;;;;;;31.11;48.93;99505.53;4937010;29;20048;-73
2022/08/25 11:48:35;;;;;;;0.80;0.80;;;;;;;31.24;48.97;99511.41;4937542;29;20402;-73
2022/08/25 11:51:07;;;;;;;1.67;1.48;;;;;;;31.44;49.81;99497.28;4936910;29;20052;-73
2022/08/25 11:53:38;;;;;;;1.65;1.52;;;;;;;31.38;48.38;99502.25;4936979;29;20048;-72
2022/08/25 11:56:13;;;;;;;0.60;0.60;;;;;;;31.22;48.16;99502.75;4943820;29;20086;-70
2022/08/25 11:58:48;;;;;;;0.52;0.52;;;;;;;31.05;48.03;99496.34;4936757;29;20490;-71
2022/08/25 12:01:41;;;;;;;1.20;1.10;;;;;;;31.17;48.61;99499.69;4937050;29;20490;-72
2022/08/25 12:04:14;;;;;;;0.80;0.80;;;;;;;31.16;48.34;99492.75;4936662;29;20054;-71
2022/08/25 12:07:19;;;;;;;0.88;0.82;;;;;;;31.10;48.19;99493.28;4946393;29;20055;-71
2022/08/25 12:10:12;;;;;;;2.25;1.75;;;;;;;31.06;48.36;99494.53;4936541;29;20079;-71
2022/08/25 12:13:03;;;;;;;1.00;0.95;;;;;;;31.02;48.27;99495.78;4951944;29;20134;-73
2022/08/25 12:15:56;;;;;;;0.77;0.77;;;;;;;30.95;48.08;99492.03;4955913;29;20177;-72
2022/08/25 12:18:42;;;;;;;3.45;1.23;;;;;;;30.87;48.08;99486.53;4952989;29;20126;-73